sensor_id;sensor_type;location;lat;lon;timestamp;pressure;altitude;pressure_sealevel;temperature;humidity
71195;BME280;58908;51.426;7.714;2023-03-18T00:00:57;99072.94;;;10.72;100.00
71195;BME280;58908;51.426;7.714;2023-03-18T00:03:26;99074.00;;;10.82;100.00
71195;BME280;58908;51.426;7.714;2023-03-18T00:06:01;99071.06;;;10.86;100.00
71195;BME280;58908;51.426;7.714;2023-03-18T00:08:27;99073.56;;;10.88;100.00
71195;BME280;58908;51.426;7.714;2023-03-18T00:10:54;99071.78;;;10.88;100.00
71195;BME280;58908;51.426;7.714;2023-03-18T00:13:20;99068.53;;;10.85;100.00
71195;BME280;58908;51.426;7.714;2023-03-18T00:15:49;99071.28;;;10.83;100.00
71195;BME280;58908;51.426;7.714;2023-03-18T00:18:15;99068.97;;;10.79;100.00
71195;BME280;58908;51.426;7.714;2023-03-18T00:20:43;99074.00;;;10.82;100.00
71195;BME280;58908;51.426;7.714;2023-03-18T00:23:10;99067.16;;;10.79;100.00
71195;BME280;58908;51.426;7.714;2023-03-18T00:25:37;99070.44;;;10.83;100.00
71195;BME280;58908;51.426;7.714;2023-03-18T00:28:04;99069.47;;;10.84;100.00
71195;BME280;58908;51.426;7.714;2023-03-18T00:30:31;99065.66;;;10.88;100.00
71195;BME280;58908;51.426;7.714;2023-03-18T00:32:57;99068.44;;;10.86;100.00
71195;BME280;58908;51.426;7.714;2023-03-18T00:35:24;99071.28;;;10.83;100.00
71195;BME280;58908;51.426;7.714;2023-03-18T00:37:53;99071.69;;;10.90;100.00
71195;BME280;58908;51.426;7.714;2023-03-18T00:40:20;99080.03;;;10.84;100.00
71195;BME280;58908;51.426;7.714;2023-03-18T00:42:52;99070.94;;;10.88;100.00
71195;BME280;58908;51.426;7.714;2023-03-18T00:45:25;99068.41;;;10.99;100.00
71195;BME280;58908;51.426;7.714;2023-03-18T00:47:52;99064.38;;;10.93;100.00
71195;BME280;58908;51.426;7.714;2023-03-18T00:50:18;99060.19;;;10.91;100.00
71195;BME280;58908;51.426;7.714;2023-03-18T00:52:45;99069.78;;;10.92;100.00
71195;BME280;58908;51.426;7.714;2023-03-18T00:55:12;99067.66;;;10.97;100.00
71195;BME280;58908;51.426;7.714;2023-03-18T00:57:39;99072.22;;;10.95;100.00
71195;BME280;58908;51.426;7.714;2023-03-18T01:00:06;99076.53;;;10.96;100.00
71195;BME280;58908;51.426;7.714;2023-03-18T01:02:33;99060.19;;;10.91;100.00
71195;BME280;58908;51.426;7.714;2023-03-18T01:05:00;99072.53;;;10.90;100.00
71195;BME280;58908;51.426;7.714;2023-03-18T01:07:26;99073.69;;;10.99;100.00
71195;BME280;58908;51.426;7.714;2023-03-18T01:09:52;99070.31;;;10.97;100.00
71195;BME280;58908;51.426;7.714;2023-03-18T01:12:20;99062.28;;;10.98;100.00
71195;BME280;58908;51.426;7.714;2023-03-18T01:14:46;99065.66;;;11.00;100.00
71195;BME280;58908;51.426;7.714;2023-03-18T01:17:13;99065.97;;;10.96;100.00
71195;BME280;58908;51.426;7.714;2023-03-18T01:19:39;99059.34;;;10.90;100.00
71195;BME280;58908;51.426;7.714;2023-03-18T01:22:06;99058.38;;;10.91;100.00
71195;BME280;58908;51.426;7.714;2023-03-18T01:24:32;99063.56;;;10.93;100.00
71195;BME280;58908;51.426;7.714;2023-03-18T01:27:00;99064.94;;;10.86;100.00
71195;BME280;58908;51.426;7.714;2023-03-18T01:29:27;99061.25;;;10.88;100.00
71195;BME280;58908;51.426;7.714;2023-03-18T01:31:54;99063.16;;;10.86;100.00
71195;BME280;58908;51.426;7.714;2023-03-18T01:34:21;99065.97;;;10.96;100.00
71195;BME280;58908;51.426;7.714;2023-03-18T01:36:47;99068.22;;;11.02;100.00
71195;BME280;58908;51.426;7.714;2023-03-18T01:39:14;99072.22;;;10.95;100.00
71195;BME280;58908;51.426;7.714;2023-03-18T01:41:41;99064.63;;;11.03;100.00
71195;BME280;58908;51.426;7.714;2023-03-18T01:44:11;99061.84;;;11.04;100.00
71195;BME280;58908;51.426;7.714;2023-03-18T01:46:40;99063.25;;;10.97;100.00
71195;BME280;58908;51.426;7.714;2023-03-18T01:49:08;99061.97;;;10.90;100.00
71195;BME280;58908;51.426;7.714;2023-03-18T01:51:36;99057.56;;;10.91;100.00
71195;BME280;58908;51.426;7.714;2023-03-18T01:54:03;99059.56;;;10.87;100.00
71195;BME280;58908;51.426;7.714;2023-03-18T01:56:31;99054.19;;;10.89;100.00
71195;BME280;58908;51.426;7.714;2023-03-18T01:58:59;99061.97;;;10.90;100.00
71195;BME280;58908;51.426;7.714;2023-03-18T02:01:26;99064.38;;;10.93;100.00
71195;BME280;58908;51.426;7.714;2023-03-18T02:03:56;99073.91;;;10.96;100.00
71195;BME280;58908;51.426;7.714;2023-03-18T02:06:24;99071.69;;;11.02;100.00
71195;BME280;58908;51.426;7.714;2023-03-18T02:08:50;99061.66;;;11.07;100.00
71195;BME280;58908;51.426;7.714;2023-03-18T02:11:16;99061.34;;;11.12;100.00
71195;BME280;58908;51.426;7.714;2023-03-18T02:13:43;99063.22;;;11.10;100.00
71195;BME280;58908;51.426;7.714;2023-03-18T02:16:11;99065.44;;;11.16;100.00
71195;BME280;58908;51.426;7.714;2023-03-18T02:18:40;99068.41;;;11.11;100.00
71195;BME280;58908;51.426;7.714;2023-03-18T02:21:30;99057.75;;;11.13;100.00
71195;BME280;58908;51.426;7.714;2023-03-18T02:23:59;99042.72;;;11.13;100.00
71195;BME280;58908;51.426;7.714;2023-03-18T02:26:30;99061.75;;;11.06;100.00
71195;BME280;58908;51.426;7.714;2023-03-18T02:29:00;99064.72;;;11.01;100.00
71195;BME280;58908;51.426;7.714;2023-03-18T02:31:28;99064.72;;;11.14;100.00
71195;BME280;58908;51.426;7.714;2023-03-18T02:33:55;99066.50;;;11.13;100.00
71195;BME280;58908;51.426;7.714;2023-03-18T02:36:23;99073.69;;;11.11;100.00
71195;BME280;58908;51.426;7.714;2023-03-18T02:38:50;99080.00;;;11.09;100.00
71195;BME280;58908;51.426;7.714;2023-03-18T02:41:17;99080.44;;;11.03;100.00
71195;BME280;58908;51.426;7.714;2023-03-18T02:43:45;99070.94;;;11.13;100.00
71195;BME280;58908;51.426;7.714;2023-03-18T02:46:16;99056.78;;;11.14;100.00
71195;BME280;58908;51.426;7.714;2023-03-18T02:48:46;99043.78;;;11.11;100.00
71195;BME280;58908;51.426;7.714;2023-03-18T02:51:14;99044.13;;;11.06;100.00
71195;BME280;58908;51.426;7.714;2023-03-18T02:53:41;99050.28;;;10.94;100.00
71195;BME280;58908;51.426;7.714;2023-03-18T02:56:07;99044.47;;;10.89;100.00
71195;BME280;58908;51.426;7.714;2023-03-18T02:58:34;99050.69;;;10.76;100.00
71195;BME280;58908;51.426;7.714;2023-03-18T03:01:01;99060.06;;;10.67;100.00
71195;BME280;58908;51.426;7.714;2023-03-18T03:03:28;99062.38;;;10.59;100.00
71195;BME280;58908;51.426;7.714;2023-03-18T03:05:55;99062.09;;;10.51;100.00
71195;BME280;58908;51.426;7.714;2023-03-18T03:08:21;99070.38;;;10.45;100.00
71195;BME280;58908;51.426;7.714;2023-03-18T03:10:48;99067.44;;;10.50;100.00
71195;BME280;58908;51.426;7.714;2023-03-18T03:13:16;99066.06;;;10.44;100.00
71195;BME280;58908;51.426;7.714;2023-03-18T03:15:42;99070.59;;;10.42;100.00
71195;BME280;58908;51.426;7.714;2023-03-18T03:18:09;99066.28;;;10.41;100.00
71195;BME280;58908;51.426;7.714;2023-03-18T03:20:36;99069.09;;;10.38;100.00
71195;BME280;58908;51.426;7.714;2023-03-18T03:23:03;99073.97;;;10.44;100.00
71195;BME280;58908;51.426;7.714;2023-03-18T03:25:29;99080.13;;;10.45;100.00
71195;BME280;58908;51.426;7.714;2023-03-18T03:27:56;99078.09;;;10.48;100.00
71195;BME280;58908;51.426;7.714;2023-03-18T03:30:23;99086.53;;;10.41;100.00
71195;BME280;58908;51.426;7.714;2023-03-18T03:32:50;99071.75;;;10.26;100.00
71195;BME280;58908;51.426;7.714;2023-03-18T03:35:17;99076.78;;;10.16;100.00
71195;BME280;58908;51.426;7.714;2023-03-18T03:37:45;99079.91;;;10.09;100.00
71195;BME280;58908;51.426;7.714;2023-03-18T03:40:12;99088.25;;;10.15;100.00
71195;BME280;58908;51.426;7.714;2023-03-18T03:42:40;99083.75;;;10.17;100.00
71195;BME280;58908;51.426;7.714;2023-03-18T03:45:06;99076.13;;;10.13;100.00
71195;BME280;58908;51.426;7.714;2023-03-18T03:47:33;99081.28;;;10.14;100.00
71195;BME280;58908;51.426;7.714;2023-03-18T03:50:00;99076.06;;;10.27;100.00
71195;BME280;58908;51.426;7.714;2023-03-18T03:52:26;99089.63;;;10.21;100.00
71195;BME280;58908;51.426;7.714;2023-03-18T03:54:54;99088.88;;;10.19;100.00
71195;BME280;58908;51.426;7.714;2023-03-18T03:57:20;99089.75;;;10.19;100.00
71195;BME280;58908;51.426;7.714;2023-03-18T03:59:48;99086.25;;;10.19;100.00
71195;BME280;58908;51.426;7.714;2023-03-18T04:02:14;99091.09;;;10.12;100.00
71195;BME280;58908;51.426;7.714;2023-03-18T04:04:41;99090.34;;;10.10;100.00
71195;BME280;58908;51.426;7.714;2023-03-18T04:07:07;99095.84;;;10.20;100.00
71195;BME280;58908;51.426;7.714;2023-03-18T04:09:33;99104.38;;;10.11;100.00
71195;BME280;58908;51.426;7.714;2023-03-18T04:12:02;99103.31;;;10.13;100.00
71195;BME280;58908;51.426;7.714;2023-03-18T04:14:29;99105.97;;;9.99;100.00
71195;BME280;58908;51.426;7.714;2023-03-18T04:16:56;99103.72;;;9.93;100.00
71195;BME280;58908;51.426;7.714;2023-03-18T04:19:24;99113.28;;;9.82;100.00
71195;BME280;58908;51.426;7.714;2023-03-18T04:21:51;99108.41;;;9.76;100.00
71195;BME280;58908;51.426;7.714;2023-03-18T04:24:17;99119.38;;;9.82;100.00
71195;BME280;58908;51.426;7.714;2023-03-18T04:26:44;99126.16;;;9.86;100.00
71195;BME280;58908;51.426;7.714;2023-03-18T04:29:11;99117.22;;;9.89;100.00
71195;BME280;58908;51.426;7.714;2023-03-18T04:31:38;99126.19;;;9.99;100.00
71195;BME280;58908;51.426;7.714;2023-03-18T04:34:04;99122.16;;;9.93;100.00
71195;BME280;58908;51.426;7.714;2023-03-18T04:36:30;99122.00;;;9.96;100.00
71195;BME280;58908;51.426;7.714;2023-03-18T04:38:57;99122.00;;;9.96;100.00
71195;BME280;58908;51.426;7.714;2023-03-18T04:41:24;99127.56;;;9.92;100.00
71195;BME280;58908;51.426;7.714;2023-03-18T04:43:50;99128.88;;;9.85;100.00
71195;BME280;58908;51.426;7.714;2023-03-18T04:46:18;99131.97;;;9.91;100.00
71195;BME280;58908;51.426;7.714;2023-03-18T04:48:45;99133.78;;;9.91;100.00
71195;BME280;58908;51.426;7.714;2023-03-18T04:51:11;99129.19;;;9.80;100.00
71195;BME280;58908;51.426;7.714;2023-03-18T04:53:37;99138.75;;;9.81;100.00
71195;BME280;58908;51.426;7.714;2023-03-18T04:56:04;99139.72;;;9.80;100.00
71195;BME280;58908;51.426;7.714;2023-03-18T04:58:31;99141.59;;;9.78;100.00
71195;BME280;58908;51.426;7.714;2023-03-18T05:00:57;99144.25;;;9.78;100.00
71195;BME280;58908;51.426;7.714;2023-03-18T05:03:25;99141.59;;;9.78;100.00
71195;BME280;58908;51.426;7.714;2023-03-18T05:05:51;99147.81;;;9.77;100.00
71195;BME280;58908;51.426;7.714;2023-03-18T05:08:17;99147.81;;;9.77;100.00
71195;BME280;58908;51.426;7.714;2023-03-18T05:10:44;99151.47;;;9.75;100.00
71195;BME280;58908;51.426;7.714;2023-03-18T05:13:11;99140.44;;;9.82;100.00
71195;BME280;58908;51.426;7.714;2023-03-18T05:15:37;99157.97;;;9.83;100.00
71195;BME280;58908;51.426;7.714;2023-03-18T05:18:04;99158.31;;;9.91;100.00
71195;BME280;58908;51.426;7.714;2023-03-18T05:20:31;99157.03;;;9.84;100.00
71195;BME280;58908;51.426;7.714;2023-03-18T05:22:57;99157.13;;;9.83;100.00
71195;BME280;58908;51.426;7.714;2023-03-18T05:25:24;99154.56;;;9.81;100.00
71195;BME280;58908;51.426;7.714;2023-03-18T05:27:51;99159.94;;;9.80;100.00
71195;BME280;58908;51.426;7.714;2023-03-18T05:30:18;99162.69;;;9.78;100.00
71195;BME280;58908;51.426;7.714;2023-03-18T05:32:44;99161.28;;;9.73;100.00
71195;BME280;58908;51.426;7.714;2023-03-18T05:35:11;99164.66;;;9.75;100.00
71195;BME280;58908;51.426;7.714;2023-03-18T05:37:39;99159.38;;;9.75;100.00
71195;BME280;58908;51.426;7.714;2023-03-18T05:40:06;99156.22;;;9.70;100.00
71195;BME280;58908;51.426;7.714;2023-03-18T05:42:34;99157.91;;;9.71;100.00
71195;BME280;58908;51.426;7.714;2023-03-18T05:45:00;99151.03;;;9.68;100.00
71195;BME280;58908;51.426;7.714;2023-03-18T05:47:27;99163.16;;;9.71;100.00
71195;BME280;58908;51.426;7.714;2023-03-18T05:49:53;99161.34;;;9.71;100.00
71195;BME280;58908;51.426;7.714;2023-03-18T05:52:19;99165.59;;;9.74;100.00
71195;BME280;58908;51.426;7.714;2023-03-18T05:54:47;99160.78;;;9.80;100.00
71195;BME280;58908;51.426;7.714;2023-03-18T05:57:15;99168.69;;;9.80;100.00
71195;BME280;58908;51.426;7.714;2023-03-18T05:59:42;99163.53;;;9.79;100.00
71195;BME280;58908;51.426;7.714;2023-03-18T06:02:09;99172.56;;;9.75;100.00
71195;BME280;58908;51.426;7.714;2023-03-18T06:04:36;99167.94;;;9.78;100.00
71195;BME280;58908;51.426;7.714;2023-03-18T06:07:04;99176.59;;;9.80;100.00
71195;BME280;58908;51.426;7.714;2023-03-18T06:09:30;99184.19;;;9.85;100.00
71195;BME280;58908;51.426;7.714;2023-03-18T06:12:00;99182.97;;;9.90;100.00
71195;BME280;58908;51.426;7.714;2023-03-18T06:14:27;99182.31;;;10.01;100.00
71195;BME280;58908;51.426;7.714;2023-03-18T06:16:53;99183.13;;;10.15;100.00
71195;BME280;58908;51.426;7.714;2023-03-18T06:19:20;99193.72;;;10.28;100.00
71195;BME280;58908;51.426;7.714;2023-03-18T06:21:47;99193.13;;;10.37;100.00
71195;BME280;58908;51.426;7.714;2023-03-18T06:24:13;99192.09;;;10.39;100.00
71195;BME280;58908;51.426;7.714;2023-03-18T06:26:40;99195.34;;;10.43;100.00
71195;BME280;58908;51.426;7.714;2023-03-18T06:29:07;99198.00;;;10.43;100.00
71195;BME280;58908;51.426;7.714;2023-03-18T06:31:35;99203.38;;;10.41;100.00
71195;BME280;58908;51.426;7.714;2023-03-18T06:34:01;99199.06;;;10.40;100.00
71195;BME280;58908;51.426;7.714;2023-03-18T06:36:28;99208.66;;;10.41;100.00
71195;BME280;58908;51.426;7.714;2023-03-18T06:38:55;99208.44;;;10.44;100.00
71195;BME280;58908;51.426;7.714;2023-03-18T06:41:21;99209.09;;;10.48;100.00
71195;BME280;58908;51.426;7.714;2023-03-18T06:43:48;99214.59;;;10.45;100.00
71195;BME280;58908;51.426;7.714;2023-03-18T06:46:17;99206.56;;;10.46;100.00
71195;BME280;58908;51.426;7.714;2023-03-18T06:48:43;99217.97;;;10.47;100.00
71195;BME280;58908;51.426;7.714;2023-03-18T06:51:10;99226.59;;;10.49;100.00
71195;BME280;58908;51.426;7.714;2023-03-18T06:53:36;99223.13;;;10.48;100.00
71195;BME280;58908;51.426;7.714;2023-03-18T06:56:04;99222.00;;;10.52;100.00
71195;BME280;58908;51.426;7.714;2023-03-18T06:58:31;99222.72;;;10.54;100.00
71195;BME280;58908;51.426;7.714;2023-03-18T07:00:58;99229.78;;;10.54;100.00
71195;BME280;58908;51.426;7.714;2023-03-18T07:03:26;99231.47;;;10.55;100.00
71195;BME280;58908;51.426;7.714;2023-03-18T07:05:52;99227.69;;;10.59;100.00
71195;BME280;58908;51.426;7.714;2023-03-18T07:08:20;99235.41;;;10.62;100.00
71195;BME280;58908;51.426;7.714;2023-03-18T07:10:46;99237.31;;;10.60;100.00
71195;BME280;58908;51.426;7.714;2023-03-18T07:13:12;99239.00;;;10.61;100.00
71195;BME280;58908;51.426;7.714;2023-03-18T07:15:39;99237.22;;;10.61;100.00
71195;BME280;58908;51.426;7.714;2023-03-18T07:18:05;99253.22;;;10.58;100.00
71195;BME280;58908;51.426;7.714;2023-03-18T07:20:33;99253.22;;;10.58;100.00
71195;BME280;58908;51.426;7.714;2023-03-18T07:23:00;99253.94;;;10.60;100.00
71195;BME280;58908;51.426;7.714;2023-03-18T07:25:27;99253.22;;;10.58;100.00
71195;BME280;58908;51.426;7.714;2023-03-18T07:27:54;99258.19;;;10.63;100.00
71195;BME280;58908;51.426;7.714;2023-03-18T07:30:21;99262.44;;;10.65;100.00
71195;BME280;58908;51.426;7.714;2023-03-18T07:32:47;99259.78;;;10.65;100.00
71195;BME280;58908;51.426;7.714;2023-03-18T07:35:15;99266.56;;;10.69;100.00
71195;BME280;58908;51.426;7.714;2023-03-18T07:37:43;99263.91;;;10.69;100.00
71195;BME280;58908;51.426;7.714;2023-03-18T07:40:09;99271.66;;;10.72;100.00
71195;BME280;58908;51.426;7.714;2023-03-18T07:42:37;99268.81;;;10.75;100.00
71195;BME280;58908;51.426;7.714;2023-03-18T07:45:03;99275.56;;;10.79;100.00
71195;BME280;58908;51.426;7.714;2023-03-18T07:47:30;99269.34;;;10.80;100.00
71195;BME280;58908;51.426;7.714;2023-03-18T07:49:56;99275.25;;;10.84;100.00
71195;BME280;58908;51.426;7.714;2023-03-18T07:52:23;99277.69;;;10.87;100.00
71195;BME280;58908;51.426;7.714;2023-03-18T07:54:51;99275.69;;;10.90;100.00
71195;BME280;58908;51.426;7.714;2023-03-18T07:57:17;99280.81;;;11.06;100.00
71195;BME280;58908;51.426;7.714;2023-03-18T07:59:44;99278.81;;;11.09;100.00
71195;BME280;58908;51.426;7.714;2023-03-18T08:02:10;99281.03;;;11.15;100.00
71195;BME280;58908;51.426;7.714;2023-03-18T08:04:38;99276.44;;;11.31;100.00
71195;BME280;58908;51.426;7.714;2023-03-18T08:07:04;99283.84;;;11.51;100.00
71195;BME280;58908;51.426;7.714;2023-03-18T08:09:30;99282.31;;;11.61;100.00
71195;BME280;58908;51.426;7.714;2023-03-18T08:11:58;99287.81;;;11.83;100.00
71195;BME280;58908;51.426;7.714;2023-03-18T08:14:24;99282.50;;;11.83;100.00
71195;BME280;58908;51.426;7.714;2023-03-18T08:16:51;99287.03;;;11.93;100.00
71195;BME280;58908;51.426;7.714;2023-03-18T08:19:17;99293.47;;;12.02;100.00
71195;BME280;58908;51.426;7.714;2023-03-18T08:21:44;99296.66;;;11.94;100.00
71195;BME280;58908;51.426;7.714;2023-03-18T08:24:10;99294.00;;;11.94;100.00
71195;BME280;58908;51.426;7.714;2023-03-18T08:26:36;99296.50;;;12.21;100.00
71195;BME280;58908;51.426;7.714;2023-03-18T08:29:04;99302.72;;;12.32;100.00
71195;BME280;58908;51.426;7.714;2023-03-18T08:31:30;99303.47;;;12.34;100.00
71195;BME280;58908;51.426;7.714;2023-03-18T08:33:57;99305.44;;;12.79;100.00
71195;BME280;58908;51.426;7.714;2023-03-18T08:36:24;99295.19;;;12.98;100.00
71195;BME280;58908;51.426;7.714;2023-03-18T08:38:51;99302.91;;;13.25;100.00
71195;BME280;58908;51.426;7.714;2023-03-18T08:41:18;99309.44;;;13.88;100.00
71195;BME280;58908;51.426;7.714;2023-03-18T08:43:44;99312.22;;;13.87;99.09
71195;BME280;58908;51.426;7.714;2023-03-18T08:46:12;99300.84;;;14.83;91.84
71195;BME280;58908;51.426;7.714;2023-03-18T08:48:38;99309.78;;;15.14;91.42
71195;BME280;58908;51.426;7.714;2023-03-18T08:51:05;99311.53;;;14.50;90.05
71195;BME280;58908;51.426;7.714;2023-03-18T08:53:32;99307.44;;;15.00;86.99
71195;BME280;58908;51.426;7.714;2023-03-18T08:55:58;99309.09;;;15.64;83.68
71195;BME280;58908;51.426;7.714;2023-03-18T08:58:25;99311.69;;;15.23;85.68
71195;BME280;58908;51.426;7.714;2023-03-18T09:00:53;99315.34;;;16.04;83.33
71195;BME280;58908;51.426;7.714;2023-03-18T09:03:20;99314.75;;;16.60;81.31
71195;BME280;58908;51.426;7.714;2023-03-18T09:05:48;99316.59;;;15.38;82.32
71195;BME280;58908;51.426;7.714;2023-03-18T09:08:14;99313.69;;;14.56;85.47
71195;BME280;58908;51.426;7.714;2023-03-18T09:10:41;99314.03;;;14.63;84.12
71195;BME280;58908;51.426;7.714;2023-03-18T09:13:09;99314.91;;;14.52;84.55
71195;BME280;58908;51.426;7.714;2023-03-18T09:15:36;99314.34;;;15.34;83.32
71195;BME280;58908;51.426;7.714;2023-03-18T09:18:02;99303.44;;;15.57;81.10
71195;BME280;58908;51.426;7.714;2023-03-18T09:20:30;99319.75;;;16.14;78.24
71195;BME280;58908;51.426;7.714;2023-03-18T09:22:57;99322.31;;;15.23;81.54
71195;BME280;58908;51.426;7.714;2023-03-18T09:25:24;99323.28;;;14.79;84.33
71195;BME280;58908;51.426;7.714;2023-03-18T09:27:51;99325.38;;;15.50;82.08
71195;BME280;58908;51.426;7.714;2023-03-18T09:30:17;99323.13;;;15.34;80.38
71195;BME280;58908;51.426;7.714;2023-03-18T09:32:44;99324.88;;;14.71;82.57
71195;BME280;58908;51.426;7.714;2023-03-18T09:35:10;99334.75;;;15.33;82.41
71195;BME280;58908;51.426;7.714;2023-03-18T09:37:38;99323.84;;;16.48;77.33
71195;BME280;58908;51.426;7.714;2023-03-18T09:40:05;99321.03;;;16.40;74.96
71195;BME280;58908;51.426;7.714;2023-03-18T09:42:44;99327.72;;;16.14;75.88
71195;BME280;58908;51.426;7.714;2023-03-18T09:45:16;99323.88;;;16.28;76.36
71195;BME280;58908;51.426;7.714;2023-03-18T09:47:47;99320.41;;;16.67;77.30
71195;BME280;58908;51.426;7.714;2023-03-18T09:50:19;99324.66;;;16.88;72.69
71195;BME280;58908;51.426;7.714;2023-03-18T09:52:52;99321.81;;;16.61;75.32
71195;BME280;58908;51.426;7.714;2023-03-18T09:55:23;99331.66;;;15.69;76.10
71195;BME280;58908;51.426;7.714;2023-03-18T09:57:52;99328.88;;;15.50;79.03
71195;BME280;58908;51.426;7.714;2023-03-18T10:00:21;99324.53;;;15.70;78.29
71195;BME280;58908;51.426;7.714;2023-03-18T10:02:50;99329.09;;;16.09;76.15
71195;BME280;58908;51.426;7.714;2023-03-18T10:05:20;99325.72;;;16.07;75.12
71195;BME280;58908;51.426;7.714;2023-03-18T10:07:51;99328.94;;;15.28;77.79
71195;BME280;58908;51.426;7.714;2023-03-18T10:10:20;99332.31;;;15.41;78.54
71195;BME280;58908;51.426;7.714;2023-03-18T10:12:49;99327.09;;;15.40;78.05
71195;BME280;58908;51.426;7.714;2023-03-18T10:15:17;99318.97;;;15.52;79.11
71195;BME280;58908;51.426;7.714;2023-03-18T10:17:47;99326.28;;;15.80;77.43
71195;BME280;58908;51.426;7.714;2023-03-18T10:20:17;99329.53;;;15.84;77.52
71195;BME280;58908;51.426;7.714;2023-03-18T10:22:49;99324.81;;;15.67;75.56
71195;BME280;58908;51.426;7.714;2023-03-18T10:25:20;99328.53;;;15.85;75.78
71195;BME280;58908;51.426;7.714;2023-03-18T10:27:54;99324.72;;;15.98;76.10
71195;BME280;58908;51.426;7.714;2023-03-18T10:30:37;99325.53;;;15.99;74.95
71195;BME280;58908;51.426;7.714;2023-03-18T10:33:11;99329.91;;;16.00;74.93
71195;BME280;58908;51.426;7.714;2023-03-18T10:35:40;99331.19;;;15.85;74.07
71195;BME280;58908;51.426;7.714;2023-03-18T10:38:10;99327.63;;;15.75;74.34
71195;BME280;58908;51.426;7.714;2023-03-18T10:40:42;99325.03;;;15.43;76.65
71195;BME280;58908;51.426;7.714;2023-03-18T10:43:11;99325.09;;;15.53;77.72
71195;BME280;58908;51.426;7.714;2023-03-18T10:45:40;99321.66;;;15.62;75.64
71195;BME280;58908;51.426;7.714;2023-03-18T10:48:09;99329.84;;;15.70;74.25
71195;BME280;58908;51.426;7.714;2023-03-18T10:50:38;99330.28;;;15.75;75.11
71195;BME280;58908;51.426;7.714;2023-03-18T10:53:10;99327.25;;;15.79;74.93
71195;BME280;58908;51.426;7.714;2023-03-18T10:55:42;99333.41;;;15.80;74.19
71195;BME280;58908;51.426;7.714;2023-03-18T10:58:14;99324.78;;;15.46;74.00
71195;BME280;58908;51.426;7.714;2023-03-18T11:00:41;99320.38;;;15.56;73.76
71195;BME280;58908;51.426;7.714;2023-03-18T11:03:09;99314.41;;;15.43;73.47
71195;BME280;58908;51.426;7.714;2023-03-18T11:05:41;99318.59;;;15.87;75.11
71195;BME280;58908;51.426;7.714;2023-03-18T11:08:08;99310.56;;;15.98;74.04
71195;BME280;58908;51.426;7.714;2023-03-18T11:10:52;99307.97;;;15.87;72.82
71195;BME280;58908;51.426;7.714;2023-03-18T11:13:20;99298.22;;;15.97;73.84
71195;BME280;58908;51.426;7.714;2023-03-18T11:15:47;99309.19;;;16.03;71.47
71195;BME280;58908;51.426;7.714;2023-03-18T11:18:15;99305.75;;;16.22;70.56
71195;BME280;58908;51.426;7.714;2023-03-18T11:20:42;99303.78;;;16.14;70.64
71195;BME280;58908;51.426;7.714;2023-03-18T11:23:13;99309.09;;;16.14;71.11
71195;BME280;58908;51.426;7.714;2023-03-18T11:25:42;99306.72;;;16.11;70.73
71195;BME280;58908;51.426;7.714;2023-03-18T11:28:17;99307.16;;;16.16;72.04
71195;BME280;58908;51.426;7.714;2023-03-18T11:30:45;99303.00;;;16.33;71.61
71195;BME280;58908;51.426;7.714;2023-03-18T11:33:13;99305.91;;;16.20;70.84
71195;BME280;58908;51.426;7.714;2023-03-18T11:35:42;99313.44;;;16.36;69.85
71195;BME280;58908;51.426;7.714;2023-03-18T11:38:13;99301.72;;;16.27;68.50
71195;BME280;58908;51.426;7.714;2023-03-18T11:40:39;99305.53;;;16.04;68.99
71195;BME280;58908;51.426;7.714;2023-03-18T11:43:11;99309.75;;;16.07;69.04
71195;BME280;58908;51.426;7.714;2023-03-18T11:45:41;99308.28;;;16.14;69.66
71195;BME280;58908;51.426;7.714;2023-03-18T11:48:13;99300.44;;;16.22;67.54
71195;BME280;58908;51.426;7.714;2023-03-18T11:50:41;99300.69;;;16.09;69.00
71195;BME280;58908;51.426;7.714;2023-03-18T11:53:12;99290.94;;;16.19;66.89
71195;BME280;58908;51.426;7.714;2023-03-18T11:55:42;99291.81;;;16.29;68.03
71195;BME280;58908;51.426;7.714;2023-03-18T12:00:56;99289.25;;;16.18;68.28
71195;BME280;58908;51.426;7.714;2023-03-18T12:06:27;99282.41;;;15.75;70.10
71195;BME280;58908;51.426;7.714;2023-03-18T12:08:58;99285.41;;;15.61;69.13
71195;BME280;58908;51.426;7.714;2023-03-18T12:11:29;99285.00;;;15.86;70.17
71195;BME280;58908;51.426;7.714;2023-03-18T12:14:00;99290.06;;;16.19;69.53
71195;BME280;58908;51.426;7.714;2023-03-18T12:16:33;99278.03;;;16.45;67.78
71195;BME280;58908;51.426;7.714;2023-03-18T12:19:08;99280.31;;;16.59;67.63
71195;BME280;58908;51.426;7.714;2023-03-18T12:21:48;99277.16;;;16.44;67.92
71195;BME280;58908;51.426;7.714;2023-03-18T12:24:23;99285.22;;;16.33;68.04
71195;BME280;58908;51.426;7.714;2023-03-18T12:26:54;99286.34;;;16.31;68.50
71195;BME280;58908;51.426;7.714;2023-03-18T12:32:06;99292.16;;;16.15;66.78
71195;BME280;58908;51.426;7.714;2023-03-18T12:34:40;99287.41;;;16.19;67.72
71195;BME280;58908;51.426;7.714;2023-03-18T12:37:15;99294.00;;;16.24;67.95
71195;BME280;58908;51.426;7.714;2023-03-18T12:39:57;99287.41;;;16.19;66.57
71195;BME280;58908;51.426;7.714;2023-03-18T12:42:29;99287.72;;;16.25;67.24
71195;BME280;58908;51.426;7.714;2023-03-18T12:44:58;99293.09;;;16.35;66.20
71195;BME280;58908;51.426;7.714;2023-03-18T12:47:27;99292.03;;;16.47;66.94
71195;BME280;58908;51.426;7.714;2023-03-18T12:49:56;99286.84;;;16.55;65.42
71195;BME280;58908;51.426;7.714;2023-03-18T12:52:26;99279.03;;;16.63;63.17
71195;BME280;58908;51.426;7.714;2023-03-18T12:54:55;99283.72;;;16.89;63.05
71195;BME280;58908;51.426;7.714;2023-03-18T12:57:25;99287.78;;;16.84;63.17
71195;BME280;58908;51.426;7.714;2023-03-18T12:59:56;99277.00;;;16.94;63.56
71195;BME280;58908;51.426;7.714;2023-03-18T13:02:34;99274.91;;;16.98;62.42
71195;BME280;58908;51.426;7.714;2023-03-18T13:05:04;99274.34;;;17.23;62.11
71195;BME280;58908;51.426;7.714;2023-03-18T13:07:41;99279.41;;;17.07;63.12